sensor_id;sensor_type;location;lat;lon;timestamp;P1;durP1;ratioP1;P2;durP2;ratioP2
59336;SDS011;45115;52.002;4.686;2023-08-30T00:00:23;9.82;;;4.75;;
59336;SDS011;45115;52.002;4.686;2023-08-30T00:02:51;8.23;;;4.43;;
59336;SDS011;45115;52.002;4.686;2023-08-30T00:05:17;9.18;;;4.32;;
59336;SDS011;45115;52.002;4.686;2023-08-30T00:07:44;9.55;;;4.68;;
59336;SDS011;45115;52.002;4.686;2023-08-30T00:10:12;19.77;;;5.10;;
59336;SDS011;45115;52.002;4.686;2023-08-30T00:12:39;10.75;;;5.13;;
59336;SDS011;45115;52.002;4.686;2023-08-30T00:15:06;7.38;;;4.30;;
59336;SDS011;45115;52.002;4.686;2023-08-30T00:17:34;7.90;;;4.30;;
59336;SDS011;45115;52.002;4.686;2023-08-30T00:20:01;10.60;;;4.53;;
59336;SDS011;45115;52.002;4.686;2023-08-30T00:22:28;9.50;;;4.75;;
59336;SDS011;45115;52.002;4.686;2023-08-30T00:24:56;10.77;;;5.47;;
59336;SDS011;45115;52.002;4.686;2023-08-30T00:27:24;9.10;;;5.13;;
59336;SDS011;45115;52.002;4.686;2023-08-30T00:29:51;8.90;;;4.70;;
59336;SDS011;45115;52.002;4.686;2023-08-30T00:32:17;8.80;;;4.97;;
59336;SDS011;45115;52.002;4.686;2023-08-30T00:34:44;10.70;;;4.82;;
59336;SDS011;45115;52.002;4.686;2023-08-30T00:37:11;10.38;;;4.97;;
59336;SDS011;45115;52.002;4.686;2023-08-30T00:39:38;10.50;;;5.50;;
59336;SDS011;45115;52.002;4.686;2023-08-30T00:42:05;9.45;;;4.90;;
59336;SDS011;45115;52.002;4.686;2023-08-30T00:44:35;11.63;;;5.57;;
59336;SDS011;45115;52.002;4.686;2023-08-30T00:47:02;12.85;;;5.85;;
59336;SDS011;45115;52.002;4.686;2023-08-30T00:49:29;11.00;;;6.13;;
59336;SDS011;45115;52.002;4.686;2023-08-30T00:51:56;11.13;;;5.78;;
59336;SDS011;45115;52.002;4.686;2023-08-30T00:54:24;13.55;;;6.45;;
59336;SDS011;45115;52.002;4.686;2023-08-30T00:56:51;10.93;;;6.00;;
59336;SDS011;45115;52.002;4.686;2023-08-30T00:59:18;13.18;;;6.05;;
59336;SDS011;45115;52.002;4.686;2023-08-30T01:01:46;11.38;;;6.28;;
59336;SDS011;45115;52.002;4.686;2023-08-30T01:04:13;11.23;;;5.75;;
59336;SDS011;45115;52.002;4.686;2023-08-30T01:06:40;14.10;;;5.53;;
59336;SDS011;45115;52.002;4.686;2023-08-30T01:09:08;10.77;;;5.95;;
59336;SDS011;45115;52.002;4.686;2023-08-30T01:11:36;10.23;;;5.60;;
59336;SDS011;45115;52.002;4.686;2023-08-30T01:14:09;13.63;;;6.35;;
59336;SDS011;45115;52.002;4.686;2023-08-30T01:16:40;13.02;;;6.40;;
59336;SDS011;45115;52.002;4.686;2023-08-30T01:19:14;14.15;;;6.43;;
59336;SDS011;45115;52.002;4.686;2023-08-30T01:21:53;12.52;;;6.53;;
59336;SDS011;45115;52.002;4.686;2023-08-30T01:24:26;12.38;;;6.28;;
59336;SDS011;45115;52.002;4.686;2023-08-30T01:27:09;10.80;;;5.82;;
59336;SDS011;45115;52.002;4.686;2023-08-30T01:29:37;13.20;;;6.10;;
59336;SDS011;45115;52.002;4.686;2023-08-30T01:32:06;12.95;;;5.97;;
59336;SDS011;45115;52.002;4.686;2023-08-30T01:34:35;15.02;;;6.88;;
59336;SDS011;45115;52.002;4.686;2023-08-30T01:37:04;13.85;;;6.50;;
59336;SDS011;45115;52.002;4.686;2023-08-30T01:39:33;15.18;;;6.90;;
59336;SDS011;45115;52.002;4.686;2023-08-30T01:42:00;12.90;;;6.63;;
59336;SDS011;45115;52.002;4.686;2023-08-30T01:44:30;13.73;;;6.90;;
59336;SDS011;45115;52.002;4.686;2023-08-30T01:46:58;12.85;;;6.47;;
59336;SDS011;45115;52.002;4.686;2023-08-30T01:49:28;13.98;;;7.35;;
59336;SDS011;45115;52.002;4.686;2023-08-30T01:51:57;13.07;;;6.80;;
59336;SDS011;45115;52.002;4.686;2023-08-30T01:54:24;15.45;;;7.18;;
59336;SDS011;45115;52.002;4.686;2023-08-30T01:56:51;15.07;;;7.35;;
59336;SDS011;45115;52.002;4.686;2023-08-30T01:59:18;14.73;;;6.97;;
59336;SDS011;45115;52.002;4.686;2023-08-30T02:01:46;13.55;;;6.72;;
59336;SDS011;45115;52.002;4.686;2023-08-30T02:04:13;14.63;;;7.10;;
59336;SDS011;45115;52.002;4.686;2023-08-30T02:06:41;17.23;;;7.32;;
59336;SDS011;45115;52.002;4.686;2023-08-30T02:09:17;14.52;;;7.00;;
59336;SDS011;45115;52.002;4.686;2023-08-30T02:11:47;15.35;;;6.68;;
59336;SDS011;45115;52.002;4.686;2023-08-30T02:14:17;14.30;;;6.72;;
59336;SDS011;45115;52.002;4.686;2023-08-30T02:16:44;14.20;;;6.60;;
59336;SDS011;45115;52.002;4.686;2023-08-30T02:19:13;15.57;;;7.18;;
59336;SDS011;45115;52.002;4.686;2023-08-30T02:21:42;14.20;;;6.80;;
59336;SDS011;45115;52.002;4.686;2023-08-30T02:24:09;15.15;;;7.00;;
59336;SDS011;45115;52.002;4.686;2023-08-30T02:26:36;17.52;;;7.13;;
59336;SDS011;45115;52.002;4.686;2023-08-30T02:29:03;14.40;;;6.80;;
59336;SDS011;45115;52.002;4.686;2023-08-30T02:31:30;14.50;;;7.07;;
59336;SDS011;45115;52.002;4.686;2023-08-30T02:33:58;11.93;;;6.50;;
59336;SDS011;45115;52.002;4.686;2023-08-30T02:36:25;14.23;;;6.78;;
59336;SDS011;45115;52.002;4.686;2023-08-30T02:38:51;15.45;;;7.47;;
59336;SDS011;45115;52.002;4.686;2023-08-30T02:41:18;13.02;;;5.95;;
59336;SDS011;45115;52.002;4.686;2023-08-30T02:43:47;14.93;;;7.13;;
59336;SDS011;45115;52.002;4.686;2023-08-30T02:46:14;14.80;;;7.07;;
59336;SDS011;45115;52.002;4.686;2023-08-30T02:48:40;14.50;;;7.10;;
59336;SDS011;45115;52.002;4.686;2023-08-30T02:51:08;14.85;;;7.10;;
59336;SDS011;45115;52.002;4.686;2023-08-30T02:53:35;14.23;;;7.15;;
59336;SDS011;45115;52.002;4.686;2023-08-30T02:56:02;15.13;;;7.07;;
59336;SDS011;45115;52.002;4.686;2023-08-30T02:58:29;15.90;;;7.07;;
59336;SDS011;45115;52.002;4.686;2023-08-30T03:00:59;14.15;;;6.90;;
59336;SDS011;45115;52.002;4.686;2023-08-30T03:03:26;12.68;;;6.57;;
59336;SDS011;45115;52.002;4.686;2023-08-30T03:05:53;14.68;;;6.90;;
59336;SDS011;45115;52.002;4.686;2023-08-30T03:08:21;14.35;;;7.22;;
59336;SDS011;45115;52.002;4.686;2023-08-30T03:10:48;17.25;;;7.20;;
59336;SDS011;45115;52.002;4.686;2023-08-30T03:13:14;14.98;;;7.55;;
59336;SDS011;45115;52.002;4.686;2023-08-30T03:15:42;13.95;;;7.15;;
59336;SDS011;45115;52.002;4.686;2023-08-30T03:18:09;13.65;;;6.63;;
59336;SDS011;45115;52.002;4.686;2023-08-30T03:20:38;12.48;;;6.93;;
59336;SDS011;45115;52.002;4.686;2023-08-30T03:23:06;14.30;;;7.00;;
59336;SDS011;45115;52.002;4.686;2023-08-30T03:25:34;14.73;;;7.35;;
59336;SDS011;45115;52.002;4.686;2023-08-30T03:28:00;14.60;;;7.82;;
59336;SDS011;45115;52.002;4.686;2023-08-30T03:30:27;15.48;;;7.88;;
59336;SDS011;45115;52.002;4.686;2023-08-30T03:32:56;16.25;;;8.07;;
59336;SDS011;45115;52.002;4.686;2023-08-30T03:35:23;16.13;;;8.30;;
59336;SDS011;45115;52.002;4.686;2023-08-30T03:37:49;15.80;;;7.90;;
59336;SDS011;45115;52.002;4.686;2023-08-30T03:40:16;15.82;;;8.35;;
59336;SDS011;45115;52.002;4.686;2023-08-30T03:42:44;18.10;;;8.82;;
59336;SDS011;45115;52.002;4.686;2023-08-30T03:45:11;20.27;;;8.95;;
59336;SDS011;45115;52.002;4.686;2023-08-30T03:47:37;15.77;;;8.40;;
59336;SDS011;45115;52.002;4.686;2023-08-30T03:50:05;16.52;;;8.30;;
59336;SDS011;45115;52.002;4.686;2023-08-30T03:52:33;17.15;;;8.90;;
59336;SDS011;45115;52.002;4.686;2023-08-30T03:55:00;19.55;;;9.90;;
59336;SDS011;45115;52.002;4.686;2023-08-30T03:57:27;20.60;;;9.65;;
59336;SDS011;45115;52.002;4.686;2023-08-30T03:59:56;19.50;;;9.32;;
59336;SDS011;45115;52.002;4.686;2023-08-30T04:02:22;18.73;;;8.93;;
59336;SDS011;45115;52.002;4.686;2023-08-30T04:04:49;18.85;;;9.02;;
59336;SDS011;45115;52.002;4.686;2023-08-30T04:07:16;20.02;;;9.00;;
59336;SDS011;45115;52.002;4.686;2023-08-30T04:09:42;19.85;;;9.73;;
59336;SDS011;45115;52.002;4.686;2023-08-30T04:12:09;17.90;;;9.18;;
59336;SDS011;45115;52.002;4.686;2023-08-30T04:14:36;20.10;;;9.73;;
59336;SDS011;45115;52.002;4.686;2023-08-30T04:17:04;17.77;;;9.68;;
59336;SDS011;45115;52.002;4.686;2023-08-30T04:19:33;17.95;;;9.18;;
59336;SDS011;45115;52.002;4.686;2023-08-30T04:22:00;18.55;;;9.20;;
59336;SDS011;45115;52.002;4.686;2023-08-30T04:24:26;20.35;;;10.13;;
59336;SDS011;45115;52.002;4.686;2023-08-30T04:26:53;17.13;;;8.55;;
59336;SDS011;45115;52.002;4.686;2023-08-30T04:29:20;20.05;;;10.05;;
59336;SDS011;45115;52.002;4.686;2023-08-30T04:31:46;19.30;;;9.05;;
59336;SDS011;45115;52.002;4.686;2023-08-30T04:34:15;21.42;;;10.55;;
59336;SDS011;45115;52.002;4.686;2023-08-30T04:36:42;18.33;;;9.88;;
59336;SDS011;45115;52.002;4.686;2023-08-30T04:39:12;18.08;;;9.52;;
59336;SDS011;45115;52.002;4.686;2023-08-30T04:41:39;18.67;;;9.65;;
59336;SDS011;45115;52.002;4.686;2023-08-30T04:44:06;19.63;;;9.60;;
59336;SDS011;45115;52.002;4.686;2023-08-30T04:46:33;18.38;;;9.88;;
59336;SDS011;45115;52.002;4.686;2023-08-30T04:48:59;17.77;;;9.43;;
59336;SDS011;45115;52.002;4.686;2023-08-30T04:51:27;19.08;;;9.93;;
59336;SDS011;45115;52.002;4.686;2023-08-30T04:53:55;19.98;;;10.10;;
59336;SDS011;45115;52.002;4.686;2023-08-30T04:56:22;19.80;;;9.43;;
59336;SDS011;45115;52.002;4.686;2023-08-30T04:58:49;17.50;;;8.80;;
59336;SDS011;45115;52.002;4.686;2023-08-30T05:01:17;17.95;;;9.43;;
59336;SDS011;45115;52.002;4.686;2023-08-30T05:03:47;19.30;;;10.02;;
59336;SDS011;45115;52.002;4.686;2023-08-30T05:06:15;17.20;;;9.43;;
59336;SDS011;45115;52.002;4.686;2023-08-30T05:08:44;18.27;;;9.60;;
59336;SDS011;45115;52.002;4.686;2023-08-30T05:11:10;18.42;;;8.88;;
59336;SDS011;45115;52.002;4.686;2023-08-30T05:13:37;18.63;;;9.75;;
59336;SDS011;45115;52.002;4.686;2023-08-30T05:16:04;17.48;;;9.00;;
59336;SDS011;45115;52.002;4.686;2023-08-30T05:18:31;19.42;;;9.13;;
59336;SDS011;45115;52.002;4.686;2023-08-30T05:21:00;20.27;;;10.30;;
59336;SDS011;45115;52.002;4.686;2023-08-30T05:23:29;16.88;;;9.00;;
59336;SDS011;45115;52.002;4.686;2023-08-30T05:25:58;19.40;;;9.23;;
59336;SDS011;45115;52.002;4.686;2023-08-30T05:28:24;19.52;;;9.63;;
59336;SDS011;45115;52.002;4.686;2023-08-30T05:30:51;19.67;;;9.27;;
59336;SDS011;45115;52.002;4.686;2023-08-30T05:33:36;17.20;;;9.00;;
59336;SDS011;45115;52.002;4.686;2023-08-30T05:36:26;21.70;;;10.63;;
59336;SDS011;45115;52.002;4.686;2023-08-30T05:39:14;18.23;;;9.50;;
59336;SDS011;45115;52.002;4.686;2023-08-30T05:41:46;20.10;;;10.88;;
59336;SDS011;45115;52.002;4.686;2023-08-30T05:44:13;20.45;;;11.00;;
59336;SDS011;45115;52.002;4.686;2023-08-30T05:46:40;22.52;;;11.07;;
59336;SDS011;45115;52.002;4.686;2023-08-30T05:49:07;18.73;;;9.93;;
59336;SDS011;45115;52.002;4.686;2023-08-30T05:51:33;21.70;;;10.63;;
59336;SDS011;45115;52.002;4.686;2023-08-30T05:54:00;21.70;;;11.32;;
59336;SDS011;45115;52.002;4.686;2023-08-30T05:56:27;23.10;;;11.02;;
59336;SDS011;45115;52.002;4.686;2023-08-30T05:58:55;22.23;;;11.65;;
59336;SDS011;45115;52.002;4.686;2023-08-30T06:01:22;22.20;;;10.85;;
59336;SDS011;45115;52.002;4.686;2023-08-30T06:03:50;21.08;;;10.35;;
59336;SDS011;45115;52.002;4.686;2023-08-30T06:06:16;19.58;;;10.50;;
59336;SDS011;45115;52.002;4.686;2023-08-30T06:08:43;22.80;;;11.40;;
59336;SDS011;45115;52.002;4.686;2023-08-30T06:11:10;20.52;;;10.13;;
59336;SDS011;45115;52.002;4.686;2023-08-30T06:13:36;20.25;;;10.35;;
59336;SDS011;45115;52.002;4.686;2023-08-30T06:16:05;20.95;;;11.60;;
59336;SDS011;45115;52.002;4.686;2023-08-30T06:18:31;21.60;;;10.15;;
59336;SDS011;45115;52.002;4.686;2023-08-30T06:20:58;20.00;;;10.93;;
59336;SDS011;45115;52.002;4.686;2023-08-30T06:23:25;21.58;;;10.70;;
59336;SDS011;45115;52.002;4.686;2023-08-30T06:25:55;22.10;;;11.55;;
59336;SDS011;45115;52.002;4.686;2023-08-30T06:28:22;21.65;;;11.93;;
59336;SDS011;45115;52.002;4.686;2023-08-30T06:30:49;19.33;;;10.25;;
59336;SDS011;45115;52.002;4.686;2023-08-30T06:33:17;22.38;;;12.43;;
59336;SDS011;45115;52.002;4.686;2023-08-30T06:35:43;21.85;;;10.90;;
59336;SDS011;45115;52.002;4.686;2023-08-30T06:38:10;23.10;;;10.95;;
59336;SDS011;45115;52.002;4.686;2023-08-30T06:40:37;21.75;;;11.90;;
59336;SDS011;45115;52.002;4.686;2023-08-30T06:43:09;22.48;;;11.00;;
59336;SDS011;45115;52.002;4.686;2023-08-30T06:45:36;19.83;;;11.00;;
59336;SDS011;45115;52.002;4.686;2023-08-30T06:48:03;19.95;;;10.57;;
59336;SDS011;45115;52.002;4.686;2023-08-30T06:50:32;21.83;;;11.27;;
59336;SDS011;45115;52.002;4.686;2023-08-30T06:52:59;21.90;;;11.35;;
59336;SDS011;45115;52.002;4.686;2023-08-30T06:55:26;22.33;;;11.55;;
59336;SDS011;45115;52.002;4.686;2023-08-30T06:57:52;20.05;;;11.02;;
59336;SDS011;45115;52.002;4.686;2023-08-30T07:00:19;20.83;;;11.48;;
59336;SDS011;45115;52.002;4.686;2023-08-30T07:02:46;20.67;;;10.52;;
59336;SDS011;45115;52.002;4.686;2023-08-30T07:05:13;22.85;;;12.23;;
59336;SDS011;45115;52.002;4.686;2023-08-30T07:07:41;20.48;;;10.60;;
59336;SDS011;45115;52.002;4.686;2023-08-30T07:10:08;19.90;;;11.73;;
59336;SDS011;45115;52.002;4.686;2023-08-30T07:12:35;17.15;;;10.32;;
59336;SDS011;45115;52.002;4.686;2023-08-30T07:15:02;17.38;;;9.20;;
59336;SDS011;45115;52.002;4.686;2023-08-30T07:17:29;16.52;;;8.88;;
59336;SDS011;45115;52.002;4.686;2023-08-30T07:19:56;18.95;;;9.43;;
59336;SDS011;45115;52.002;4.686;2023-08-30T07:22:23;16.15;;;8.30;;
59336;SDS011;45115;52.002;4.686;2023-08-30T07:24:51;16.85;;;8.23;;
59336;SDS011;45115;52.002;4.686;2023-08-30T07:27:18;15.50;;;8.55;;
59336;SDS011;45115;52.002;4.686;2023-08-30T07:29:44;16.20;;;7.88;;
59336;SDS011;45115;52.002;4.686;2023-08-30T07:32:11;15.13;;;7.68;;
59336;SDS011;45115;52.002;4.686;2023-08-30T07:34:37;14.23;;;7.78;;
59336;SDS011;45115;52.002;4.686;2023-08-30T07:37:04;13.35;;;6.82;;
59336;SDS011;45115;52.002;4.686;2023-08-30T07:39:31;13.00;;;6.65;;
59336;SDS011;45115;52.002;4.686;2023-08-30T07:41:59;13.27;;;6.95;;
59336;SDS011;45115;52.002;4.686;2023-08-30T07:44:25;13.27;;;6.50;;
59336;SDS011;45115;52.002;4.686;2023-08-30T07:46:52;12.45;;;5.85;;
59336;SDS011;45115;52.002;4.686;2023-08-30T07:49:19;13.82;;;6.40;;
59336;SDS011;45115;52.002;4.686;2023-08-30T07:51:45;12.98;;;6.10;;
59336;SDS011;45115;52.002;4.686;2023-08-30T07:54:12;11.23;;;5.65;;
59336;SDS011;45115;52.002;4.686;2023-08-30T07:56:38;11.38;;;5.35;;
59336;SDS011;45115;52.002;4.686;2023-08-30T07:59:06;11.13;;;5.13;;
59336;SDS011;45115;52.002;4.686;2023-08-30T08:01:33;9.77;;;5.50;;
59336;SDS011;45115;52.002;4.686;2023-08-30T08:04:00;9.48;;;5.03;;
59336;SDS011;45115;52.002;4.686;2023-08-30T08:06:27;10.02;;;5.10;;
59336;SDS011;45115;52.002;4.686;2023-08-30T08:08:53;14.73;;;5.65;;
59336;SDS011;45115;52.002;4.686;2023-08-30T08:11:20;11.93;;;5.57;;
59336;SDS011;45115;52.002;4.686;2023-08-30T08:13:47;10.32;;;5.85;;
59336;SDS011;45115;52.002;4.686;2023-08-30T08:16:15;11.38;;;5.60;;
59336;SDS011;45115;52.002;4.686;2023-08-30T08:18:42;12.48;;;5.63;;
59336;SDS011;45115;52.002;4.686;2023-08-30T08:21:08;12.63;;;6.45;;
59336;SDS011;45115;52.002;4.686;2023-08-30T08:23:35;12.13;;;6.30;;
59336;SDS011;45115;52.002;4.686;2023-08-30T08:26:02;12.48;;;7.13;;
59336;SDS011;45115;52.002;4.686;2023-08-30T08:28:28;14.68;;;6.65;;
59336;SDS011;45115;52.002;4.686;2023-08-30T08:30:55;16.52;;;8.13;;
59336;SDS011;45115;52.002;4.686;2023-08-30T08:33:23;12.55;;;6.93;;
59336;SDS011;45115;52.002;4.686;2023-08-30T08:35:50;14.77;;;8.00;;
59336;SDS011;45115;52.002;4.686;2023-08-30T08:38:17;14.23;;;7.63;;
59336;SDS011;45115;52.002;4.686;2023-08-30T08:40:44;14.48;;;7.70;;
59336;SDS011;45115;52.002;4.686;2023-08-30T08:43:11;13.25;;;7.50;;
59336;SDS011;45115;52.002;4.686;2023-08-30T08:45:38;14.60;;;8.43;;
59336;SDS011;45115;52.002;4.686;2023-08-30T08:48:05;13.20;;;7.05;;
59336;SDS011;45115;52.002;4.686;2023-08-30T08:50:34;14.23;;;7.63;;
59336;SDS011;45115;52.002;4.686;2023-08-30T08:53:02;12.75;;;7.55;;
59336;SDS011;45115;52.002;4.686;2023-08-30T08:55:29;12.05;;;7.20;;
59336;SDS011;45115;52.002;4.686;2023-08-30T08:57:57;11.05;;;6.43;;
59336;SDS011;45115;52.002;4.686;2023-08-30T09:00:25;12.40;;;7.38;;
59336;SDS011;45115;52.002;4.686;2023-08-30T09:02:53;14.05;;;7.55;;
59336;SDS011;45115;52.002;4.686;2023-08-30T09:05:20;10.57;;;7.03;;
59336;SDS011;45115;52.002;4.686;2023-08-30T09:07:49;12.35;;;6.80;;
59336;SDS011;45115;52.002;4.686;2023-08-30T09:10:19;11.15;;;6.45;;
59336;SDS011;45115;52.002;4.686;2023-08-30T09:12:46;8.82;;;5.55;;
59336;SDS011;45115;52.002;4.686;2023-08-30T09:15:13;9.77;;;5.93;;
59336;SDS011;45115;52.002;4.686;2023-08-30T09:17:40;7.18;;;4.75;;
59336;SDS011;45115;52.002;4.686;2023-08-30T09:20:08;10.20;;;4.25;;
59336;SDS011;45115;52.002;4.686;2023-08-30T09:22:36;7.38;;;3.72;;
59336;SDS011;45115;52.002;4.686;2023-08-30T09:25:05;5.75;;;3.53;;
59336;SDS011;45115;52.002;4.686;2023-08-30T09:27:33;9.43;;;3.80;;
59336;SDS011;45115;52.002;4.686;2023-08-30T09:30:00;6.68;;;3.60;;
59336;SDS011;45115;52.002;4.686;2023-08-30T09:32:27;7.95;;;4.10;;
59336;SDS011;45115;52.002;4.686;2023-08-30T09:34:53;8.50;;;3.85;;
59336;SDS011;45115;52.002;4.686;2023-08-30T09:37:21;9.27;;;3.70;;
59336;SDS011;45115;52.002;4.686;2023-08-30T09:39:50;10.63;;;4.10;;
59336;SDS011;45115;52.002;4.686;2023-08-30T09:42:19;8.85;;;3.47;;
59336;SDS011;45115;52.002;4.686;2023-08-30T09:44:45;8.05;;;3.65;;
59336;SDS011;45115;52.002;4.686;2023-08-30T09:47:12;9.68;;;3.45;;
59336;SDS011;45115;52.002;4.686;2023-08-30T09:49:42;8.98;;;3.42;;
59336;SDS011;45115;52.002;4.686;2023-08-30T09:52:10;6.32;;;3.75;;
59336;SDS011;45115;52.002;4.686;2023-08-30T09:54:41;8.93;;;3.58;;
59336;SDS011;45115;52.002;4.686;2023-08-30T09:57:09;7.25;;;3.35;;
59336;SDS011;45115;52.002;4.686;2023-08-30T09:59:37;5.55;;;3.58;;
59336;SDS011;45115;52.002;4.686;2023-08-30T10:02:05;6.22;;;3.17;;
59336;SDS011;45115;52.002;4.686;2023-08-30T10:04:35;8.20;;;3.05;;
59336;SDS011;45115;52.002;4.686;2023-08-30T10:07:04;9.13;;;3.50;;
59336;SDS011;45115;52.002;4.686;2023-08-30T10:09:33;7.60;;;3.58;;
59336;SDS011;45115;52.002;4.686;2023-08-30T10:11:59;7.43;;;3.28;;
59336;SDS011;45115;52.002;4.686;2023-08-30T10:14:28;5.35;;;3.10;;
59336;SDS011;45115;52.002;4.686;2023-08-30T10:16:59;6.80;;;3.47;;
59336;SDS011;45115;52.002;4.686;2023-08-30T10:19:28;6.80;;;2.90;;
59336;SDS011;45115;52.002;4.686;2023-08-30T10:21:58;6.22;;;3.40;;
59336;SDS011;45115;52.002;4.686;2023-08-30T10:24:28;9.18;;;3.03;;
59336;SDS011;45115;52.002;4.686;2023-08-30T10:26:58;7.57;;;3.38;;
59336;SDS011;45115;52.002;4.686;2023-08-30T10:29:27;9.13;;;3.50;;
59336;SDS011;45115;52.002;4.686;2023-08-30T10:31:57;8.07;;;3.50;;
59336;SDS011;45115;52.002;4.686;2023-08-30T10:34:31;7.90;;;3.20;;
59336;SDS011;45115;52.002;4.686;2023-08-30T10:36:58;9.65;;;3.72;;
59336;SDS011;45115;52.002;4.686;2023-08-30T10:39:32;8.52;;;3.20;;
59336;SDS011;45115;52.002;4.686;2023-08-30T10:42:00;8.35;;;2.92;;
59336;SDS011;45115;52.002;4.686;2023-08-30T10:44:27;8.07;;;3.50;;
59336;SDS011;45115;52.002;4.686;2023-08-30T10:46:54;7.47;;;2.90;;
59336;SDS011;45115;52.002;4.686;2023-08-30T10:49:23;9.55;;;3.00;;
59336;SDS011;45115;52.002;4.686;2023-08-30T10:51:54;7.40;;;2.95;;
59336;SDS011;45115;52.002;4.686;2023-08-30T10:56:53;9.38;;;3.05;;
59336;SDS011;45115;52.002;4.686;2023-08-30T10:59:22;12.20;;;3.90;;
59336;SDS011;45115;52.002;4.686;2023-08-30T11:01:51;8.80;;;3.35;;
59336;SDS011;45115;52.002;4.686;2023-08-30T11:04:19;9.88;;;3.03;;
59336;SDS011;45115;52.002;4.686;2023-08-30T11:06:49;7.68;;;2.75;;
59336;SDS011;45115;52.002;4.686;2023-08-30T11:09:16;6.97;;;2.83;;
59336;SDS011;45115;52.002;4.686;2023-08-30T11:11:44;8.82;;;2.33;;
59336;SDS011;45115;52.002;4.686;2023-08-30T11:14:12;10.55;;;2.45;;
59336;SDS011;45115;52.002;4.686;2023-08-30T11:16:39;3.95;;;2.35;;
59336;SDS011;45115;52.002;4.686;2023-08-30T11:19:06;7.85;;;2.60;;
59336;SDS011;45115;52.002;4.686;2023-08-30T11:21:34;6.82;;;2.60;;
59336;SDS011;45115;52.002;4.686;2023-08-30T11:24:04;4.95;;;2.40;;
59336;SDS011;45115;52.002;4.686;2023-08-30T11:26:31;6.57;;;2.42;;
59336;SDS011;45115;52.002;4.686;2023-08-30T11:29:03;4.80;;;2.60;;
59336;SDS011;45115;52.002;4.686;2023-08-30T11:31:30;7.22;;;2.45;;
59336;SDS011;45115;52.002;4.686;2023-08-30T11:33:57;7.65;;;2.42;;
59336;SDS011;45115;52.002;4.686;2023-08-30T11:36:27;7.40;;;2.63;;
59336;SDS011;45115;52.002;4.686;2023-08-30T11:38:55;7.72;;;2.50;;
59336;SDS011;45115;52.002;4.686;2023-08-30T11:41:24;7.75;;;2.75;;
59336;SDS011;45115;52.002;4.686;2023-08-30T11:43:52;7.82;;;2.22;;
59336;SDS011;45115;52.002;4.686;2023-08-30T11:46:19;7.63;;;2.55;;
59336;SDS011;45115;52.002;4.686;2023-08-30T11:48:47;8.25;;;2.40;;
59336;SDS011;45115;52.002;4.686;2023-08-30T11:51:14;6.05;;;2.53;;
59336;SDS011;45115;52.002;4.686;2023-08-30T11:53:42;5.03;;;2.30;;
59336;SDS011;45115;52.002;4.686;2023-08-30T11:56:10;6.80;;;2.70;;
59336;SDS011;45115;52.002;4.686;2023-08-30T11:58:39;6.50;;;2.50;;
59336;SDS011;45115;52.002;4.686;2023-08-30T12:01:06;7.38;;;2.63;;
59336;SDS011;45115;52.002;4.686;2023-08-30T12:03:33;11.07;;;2.90;;
59336;SDS011;45115;52.002;4.686;2023-08-30T12:06:01;6.43;;;2.83;;
59336;SDS011;45115;52.002;4.686;2023-08-30T12:08:29;7.25;;;2.65;;
59336;SDS011;45115;52.002;4.686;2023-08-30T12:10:57;8.98;;;3.03;;
59336;SDS011;45115;52.002;4.686;2023-08-30T12:13:24;7.93;;;2.88;;
59336;SDS011;45115;52.002;4.686;2023-08-30T12:15:53;8.80;;;2.78;;
59336;SDS011;45115;52.002;4.686;2023-08-30T12:18:21;7.20;;;2.50;;
59336;SDS011;45115;52.002;4.686;2023-08-30T12:20:53;5.97;;;2.33;;
59336;SDS011;45115;52.002;4.686;2023-08-30T12:23:21;7.60;;;2.42;;
59336;SDS011;45115;52.002;4.686;2023-08-30T12:25:58;5.65;;;2.72;;
59336;SDS011;45115;52.002;4.686;2023-08-30T12:28:27;5.10;;;2.88;;
59336;SDS011;45115;52.002;4.686;2023-08-30T12:30:55;6.68;;;2.80;;
59336;SDS011;45115;52.002;4.686;2023-08-30T12:33:23;7.95;;;2.90;;
59336;SDS011;45115;52.002;4.686;2023-08-30T12:35:51;7.68;;;2.85;;
59336;SDS011;45115;52.002;4.686;2023-08-30T12:38:17;6.47;;;3.38;;
59336;SDS011;45115;52.002;4.686;2023-08-30T12:40:44;5.50;;;2.90;;
59336;SDS011;45115;52.002;4.686;2023-08-30T12:43:11;5.80;;;3.00;;
59336;SDS011;45115;52.002;4.686;2023-08-30T12:45:38;7.93;;;2.78;;
59336;SDS011;45115;52.002;4.686;2023-08-30T12:48:07;7.05;;;2.95;;
59336;SDS011;45115;52.002;4.686;2023-08-30T12:50:35;7.05;;;3.40;;
59336;SDS011;45115;52.002;4.686;2023-08-30T12:53:02;6.32;;;3.15;;
59336;SDS011;45115;52.002;4.686;2023-08-30T12:55:29;6.40;;;3.10;;
59336;SDS011;45115;52.002;4.686;2023-08-30T12:57:56;8.00;;;2.88;;
59336;SDS011;45115;52.002;4.686;2023-08-30T13:00:23;6.07;;;2.70;;
59336;SDS011;45115;52.002;4.686;2023-08-30T13:02:51;6.72;;;3.03;;
59336;SDS011;45115;52.002;4.686;2023-08-30T13:05:19;6.63;;;2.42;;
59336;SDS011;45115;52.002;4.686;2023-08-30T13:07:47;5.57;;;2.63;;
59336;SDS011;45115;52.002;4.686;2023-08-30T13:10:14;6.85;;;2.58;;
59336;SDS011;45115;52.002;4.686;2023-08-30T13:12:41;4.72;;;2.70;;
59336;SDS011;45115;52.002;4.686;2023-08-30T13:15:09;3.50;;;2.40;;
59336;SDS011;45115;52.002;4.686;2023-08-30T13:17:36;7.70;;;3.03;;
59336;SDS011;45115;52.002;4.686;2023-08-30T13:20:03;5.07;;;2.70;;
59336;SDS011;45115;52.002;4.686;2023-08-30T13:22:32;7.45;;;3.13;;
59336;SDS011;45115;52.002;4.686;2023-08-30T13:24:58;5.78;;;2.70;;
59336;SDS011;45115;52.002;4.686;2023-08-30T13:27:25;9.77;;;3.25;;
59336;SDS011;45115;52.002;4.686;2023-08-30T13:29:52;6.25;;;3.03;;
59336;SDS011;45115;52.002;4.686;2023-08-30T13:32:18;8.90;;;2.72;;
59336;SDS011;45115;52.002;4.686;2023-08-30T13:34:45;5.35;;;2.60;;
59336;SDS011;45115;52.002;4.686;2023-08-30T13:37:12;6.80;;;2.55;;
59336;SDS011;45115;52.002;4.686;2023-08-30T13:39:40;7.75;;;3.15;;
59336;SDS011;45115;52.002;4.686;2023-08-30T13:42:07;4.60;;;2.83;;
59336;SDS011;45115;52.002;4.686;2023-08-30T13:44:35;9.77;;;3.08;;
59336;SDS011;45115;52.002;4.686;2023-08-30T13:47:02;8.20;;;3.00;;
59336;SDS011;45115;52.002;4.686;2023-08-30T13:49:29;8.57;;;3.25;;
59336;SDS011;45115;52.002;4.686;2023-08-30T13:51:56;7.80;;;3.63;;
59336;SDS011;45115;52.002;4.686;2023-08-30T13:54:23;9.85;;;4.22;;
59336;SDS011;45115;52.002;4.686;2023-08-30T13:56:51;8.63;;;3.60;;
59336;SDS011;45115;52.002;4.686;2023-08-30T13:59:18;9.70;;;3.10;;
59336;SDS011;45115;52.002;4.686;2023-08-30T14:01:45;7.38;;;3.30;;
59336;SDS011;45115;52.002;4.686;2023-08-30T14:04:11;4.75;;;2.80;;
59336;SDS011;45115;52.002;4.686;2023-08-30T14:06:38;7.80;;;2.90;;
59336;SDS011;45115;52.002;4.686;2023-08-30T14:09:05;7.18;;;2.95;;
59336;SDS011;45115;52.002;4.686;2023-08-30T14:11:33;9.55;;;3.58;;
59336;SDS011;45115;52.002;4.686;2023-08-30T14:14:02;8.82;;;3.03;;
59336;SDS011;45115;52.002;4.686;2023-08-30T14:16:29;7.80;;;2.75;;
59336;SDS011;45115;52.002;4.686;2023-08-30T14:18:55;6.95;;;3.00;;
59336;SDS011;45115;52.002;4.686;2023-08-30T14:21:25;4.85;;;2.92;;
59336;SDS011;45115;52.002;4.686;2023-08-30T14:23:52;6.13;;;3.28;;
59336;SDS011;45115;52.002;4.686;2023-08-30T14:26:18;4.47;;;2.97;;
59336;SDS011;45115;52.002;4.686;2023-08-30T14:28:45;6.25;;;2.58;;
59336;SDS011;45115;52.002;4.686;2023-08-30T14:31:13;4.43;;;2.10;;
59336;SDS011;45115;52.002;4.686;2023-08-30T14:33:42;3.85;;;2.53;;
59336;SDS011;45115;52.002;4.686;2023-08-30T14:36:10;6.35;;;2.55;;
59336;SDS011;45115;52.002;4.686;2023-08-30T14:38:37;6.85;;;2.40;;
59336;SDS011;45115;52.002;4.686;2023-08-30T14:41:03;5.68;;;2.38;;
59336;SDS011;45115;52.002;4.686;2023-08-30T14:43:31;4.10;;;2.58;;